sensor_id;sensor_type;location;lat;lon;timestamp;P1;durP1;ratioP1;P2;durP2;ratioP2
15287;SDS011;7745;48.708;9.026;2022-09-29T00:00:19;4.40;;;2.80;;
15287;SDS011;7745;48.708;9.026;2022-09-29T00:02:46;3.87;;;2.73;;
15287;SDS011;7745;48.708;9.026;2022-09-29T00:05:13;4.87;;;3.03;;
15287;SDS011;7745;48.708;9.026;2022-09-29T00:07:41;4.37;;;3.13;;
15287;SDS011;7745;48.708;9.026;2022-09-29T00:10:09;5.33;;;3.10;;
15287;SDS011;7745;48.708;9.026;2022-09-29T00:12:36;4.30;;;3.20;;
15287;SDS011;7745;48.708;9.026;2022-09-29T00:15:03;6.57;;;3.40;;
15287;SDS011;7745;48.708;9.026;2022-09-29T00:17:31;5.13;;;3.43;;
15287;SDS011;7745;48.708;9.026;2022-09-29T00:19:57;8.67;;;3.00;;
15287;SDS011;7745;48.708;9.026;2022-09-29T00:22:24;5.17;;;3.30;;
15287;SDS011;7745;48.708;9.026;2022-09-29T00:24:53;4.77;;;3.43;;
15287;SDS011;7745;48.708;9.026;2022-09-29T00:27:20;4.33;;;3.37;;
15287;SDS011;7745;48.708;9.026;2022-09-29T00:29:46;4.47;;;3.50;;
15287;SDS011;7745;48.708;9.026;2022-09-29T00:32:13;5.97;;;3.57;;
15287;SDS011;7745;48.708;9.026;2022-09-29T00:34:40;4.67;;;3.73;;
15287;SDS011;7745;48.708;9.026;2022-09-29T00:37:07;5.33;;;3.23;;
15287;SDS011;7745;48.708;9.026;2022-09-29T00:39:34;6.20;;;3.63;;
15287;SDS011;7745;48.708;9.026;2022-09-29T00:42:02;4.87;;;3.00;;
15287;SDS011;7745;48.708;9.026;2022-09-29T00:47:41;3.67;;;2.90;;
15287;SDS011;7745;48.708;9.026;2022-09-29T00:50:11;5.33;;;3.23;;
15287;SDS011;7745;48.708;9.026;2022-09-29T00:52:43;4.93;;;3.47;;
15287;SDS011;7745;48.708;9.026;2022-09-29T00:55:13;4.43;;;3.23;;
15287;SDS011;7745;48.708;9.026;2022-09-29T00:57:44;4.77;;;3.20;;
15287;SDS011;7745;48.708;9.026;2022-09-29T01:00:15;4.07;;;2.90;;
15287;SDS011;7745;48.708;9.026;2022-09-29T01:02:43;5.20;;;3.20;;
15287;SDS011;7745;48.708;9.026;2022-09-29T01:05:15;3.40;;;3.10;;
15287;SDS011;7745;48.708;9.026;2022-09-29T01:07:45;3.70;;;3.17;;
15287;SDS011;7745;48.708;9.026;2022-09-29T01:10:13;6.83;;;3.80;;
15287;SDS011;7745;48.708;9.026;2022-09-29T01:12:44;5.50;;;3.67;;
15287;SDS011;7745;48.708;9.026;2022-09-29T01:15:12;4.57;;;3.30;;
15287;SDS011;7745;48.708;9.026;2022-09-29T01:17:41;4.77;;;3.60;;
15287;SDS011;7745;48.708;9.026;2022-09-29T01:20:10;5.17;;;3.63;;
15287;SDS011;7745;48.708;9.026;2022-09-29T01:23:02;6.57;;;3.90;;
15287;SDS011;7745;48.708;9.026;2022-09-29T01:29:19;5.03;;;3.50;;
15287;SDS011;7745;48.708;9.026;2022-09-29T01:32:13;4.73;;;3.50;;
15287;SDS011;7745;48.708;9.026;2022-09-29T01:34:47;4.40;;;3.30;;
15287;SDS011;7745;48.708;9.026;2022-09-29T01:37:26;6.33;;;3.47;;
15287;SDS011;7745;48.708;9.026;2022-09-29T01:40:05;4.60;;;3.70;;
15287;SDS011;7745;48.708;9.026;2022-09-29T01:42:38;4.93;;;3.73;;
15287;SDS011;7745;48.708;9.026;2022-09-29T01:45:14;6.93;;;3.37;;
15287;SDS011;7745;48.708;9.026;2022-09-29T01:47:51;6.47;;;3.90;;
15287;SDS011;7745;48.708;9.026;2022-09-29T01:50:21;5.67;;;3.53;;
15287;SDS011;7745;48.708;9.026;2022-09-29T01:52:54;4.43;;;3.47;;
15287;SDS011;7745;48.708;9.026;2022-09-29T01:55:25;4.37;;;3.27;;
15287;SDS011;7745;48.708;9.026;2022-09-29T01:57:56;4.87;;;3.40;;
15287;SDS011;7745;48.708;9.026;2022-09-29T02:00:26;5.00;;;3.47;;
15287;SDS011;7745;48.708;9.026;2022-09-29T02:02:57;5.40;;;3.63;;
15287;SDS011;7745;48.708;9.026;2022-09-29T02:05:31;4.07;;;3.73;;
15287;SDS011;7745;48.708;9.026;2022-09-29T02:08:04;3.63;;;3.07;;
15287;SDS011;7745;48.708;9.026;2022-09-29T02:10:36;7.30;;;3.30;;
15287;SDS011;7745;48.708;9.026;2022-09-29T02:13:06;5.60;;;3.27;;
15287;SDS011;7745;48.708;9.026;2022-09-29T02:15:37;7.37;;;3.80;;
15287;SDS011;7745;48.708;9.026;2022-09-29T02:18:10;5.70;;;3.47;;
15287;SDS011;7745;48.708;9.026;2022-09-29T02:20:39;4.50;;;3.23;;
15287;SDS011;7745;48.708;9.026;2022-09-29T02:23:06;5.20;;;3.00;;
15287;SDS011;7745;48.708;9.026;2022-09-29T02:25:34;4.43;;;3.10;;
15287;SDS011;7745;48.708;9.026;2022-09-29T02:28:02;4.43;;;3.23;;
15287;SDS011;7745;48.708;9.026;2022-09-29T02:30:30;5.47;;;3.57;;
15287;SDS011;7745;48.708;9.026;2022-09-29T02:32:57;3.97;;;3.33;;
15287;SDS011;7745;48.708;9.026;2022-09-29T02:35:25;3.70;;;3.17;;
15287;SDS011;7745;48.708;9.026;2022-09-29T02:38:01;5.27;;;3.50;;
15287;SDS011;7745;48.708;9.026;2022-09-29T02:40:34;4.40;;;3.57;;
15287;SDS011;7745;48.708;9.026;2022-09-29T02:43:29;10.43;;;3.63;;
15287;SDS011;7745;48.708;9.026;2022-09-29T02:46:11;3.57;;;2.90;;
15287;SDS011;7745;48.708;9.026;2022-09-29T02:48:54;4.10;;;2.97;;
15287;SDS011;7745;48.708;9.026;2022-09-29T02:51:35;5.97;;;3.60;;
15287;SDS011;7745;48.708;9.026;2022-09-29T02:54:08;6.40;;;3.13;;
15287;SDS011;7745;48.708;9.026;2022-09-29T02:56:46;5.97;;;3.20;;
15287;SDS011;7745;48.708;9.026;2022-09-29T02:59:29;3.87;;;3.43;;
15287;SDS011;7745;48.708;9.026;2022-09-29T03:02:00;8.70;;;3.63;;
15287;SDS011;7745;48.708;9.026;2022-09-29T03:04:27;3.30;;;3.00;;
15287;SDS011;7745;48.708;9.026;2022-09-29T03:06:56;5.20;;;3.30;;
15287;SDS011;7745;48.708;9.026;2022-09-29T03:09:23;5.27;;;3.20;;
15287;SDS011;7745;48.708;9.026;2022-09-29T03:11:50;5.47;;;3.30;;
15287;SDS011;7745;48.708;9.026;2022-09-29T03:14:16;4.90;;;3.67;;
15287;SDS011;7745;48.708;9.026;2022-09-29T03:16:43;5.33;;;3.40;;
15287;SDS011;7745;48.708;9.026;2022-09-29T03:19:10;4.47;;;3.17;;
15287;SDS011;7745;48.708;9.026;2022-09-29T03:21:37;4.53;;;3.30;;
15287;SDS011;7745;48.708;9.026;2022-09-29T03:24:05;5.67;;;3.30;;
15287;SDS011;7745;48.708;9.026;2022-09-29T03:26:32;10.07;;;3.67;;
15287;SDS011;7745;48.708;9.026;2022-09-29T03:29:00;5.63;;;3.10;;
15287;SDS011;7745;48.708;9.026;2022-09-29T03:31:27;3.47;;;3.13;;
15287;SDS011;7745;48.708;9.026;2022-09-29T03:33:53;5.73;;;3.50;;
15287;SDS011;7745;48.708;9.026;2022-09-29T03:36:20;6.50;;;3.10;;
15287;SDS011;7745;48.708;9.026;2022-09-29T03:38:47;4.50;;;3.57;;
15287;SDS011;7745;48.708;9.026;2022-09-29T03:41:15;4.37;;;3.20;;
15287;SDS011;7745;48.708;9.026;2022-09-29T03:43:42;6.50;;;3.80;;
15287;SDS011;7745;48.708;9.026;2022-09-29T03:46:08;7.37;;;3.40;;
15287;SDS011;7745;48.708;9.026;2022-09-29T03:48:35;4.77;;;3.47;;
15287;SDS011;7745;48.708;9.026;2022-09-29T03:51:03;5.53;;;3.20;;
15287;SDS011;7745;48.708;9.026;2022-09-29T03:53:30;6.57;;;3.43;;
15287;SDS011;7745;48.708;9.026;2022-09-29T03:56:00;7.83;;;4.00;;
15287;SDS011;7745;48.708;9.026;2022-09-29T03:58:29;6.90;;;3.90;;
15287;SDS011;7745;48.708;9.026;2022-09-29T04:00:56;6.57;;;4.50;;
15287;SDS011;7745;48.708;9.026;2022-09-29T04:03:23;8.50;;;4.20;;
15287;SDS011;7745;48.708;9.026;2022-09-29T04:05:49;6.23;;;3.93;;
15287;SDS011;7745;48.708;9.026;2022-09-29T04:08:16;8.53;;;4.03;;
15287;SDS011;7745;48.708;9.026;2022-09-29T04:10:45;5.30;;;4.00;;
15287;SDS011;7745;48.708;9.026;2022-09-29T04:13:12;6.67;;;3.87;;
15287;SDS011;7745;48.708;9.026;2022-09-29T04:15:41;6.63;;;4.23;;
15287;SDS011;7745;48.708;9.026;2022-09-29T04:18:08;6.80;;;4.03;;
15287;SDS011;7745;48.708;9.026;2022-09-29T04:20:36;9.50;;;4.67;;
15287;SDS011;7745;48.708;9.026;2022-09-29T04:23:03;6.70;;;3.97;;
15287;SDS011;7745;48.708;9.026;2022-09-29T04:25:30;6.73;;;4.10;;
15287;SDS011;7745;48.708;9.026;2022-09-29T04:27:57;9.70;;;4.37;;
15287;SDS011;7745;48.708;9.026;2022-09-29T04:30:24;12.33;;;4.30;;
15287;SDS011;7745;48.708;9.026;2022-09-29T04:32:52;8.40;;;4.00;;
15287;SDS011;7745;48.708;9.026;2022-09-29T04:35:19;6.83;;;4.00;;
15287;SDS011;7745;48.708;9.026;2022-09-29T04:37:45;6.23;;;3.93;;
15287;SDS011;7745;48.708;9.026;2022-09-29T04:40:12;8.40;;;4.43;;
15287;SDS011;7745;48.708;9.026;2022-09-29T04:42:39;7.90;;;4.70;;
15287;SDS011;7745;48.708;9.026;2022-09-29T04:45:06;9.13;;;4.53;;
15287;SDS011;7745;48.708;9.026;2022-09-29T04:47:33;8.57;;;4.37;;
15287;SDS011;7745;48.708;9.026;2022-09-29T04:50:01;9.40;;;4.90;;
15287;SDS011;7745;48.708;9.026;2022-09-29T04:52:28;9.07;;;4.83;;
15287;SDS011;7745;48.708;9.026;2022-09-29T04:54:54;12.60;;;5.13;;
15287;SDS011;7745;48.708;9.026;2022-09-29T04:57:21;10.73;;;5.07;;
15287;SDS011;7745;48.708;9.026;2022-09-29T04:59:48;9.90;;;4.63;;
15287;SDS011;7745;48.708;9.026;2022-09-29T05:02:16;11.70;;;4.83;;
15287;SDS011;7745;48.708;9.026;2022-09-29T05:04:42;8.13;;;4.30;;
15287;SDS011;7745;48.708;9.026;2022-09-29T05:07:12;10.37;;;4.77;;
15287;SDS011;7745;48.708;9.026;2022-09-29T05:09:40;8.67;;;5.30;;
15287;SDS011;7745;48.708;9.026;2022-09-29T05:12:07;11.00;;;4.87;;
15287;SDS011;7745;48.708;9.026;2022-09-29T05:14:33;7.77;;;4.73;;
15287;SDS011;7745;48.708;9.026;2022-09-29T05:17:00;10.57;;;4.83;;
15287;SDS011;7745;48.708;9.026;2022-09-29T05:19:27;8.03;;;4.43;;
15287;SDS011;7745;48.708;9.026;2022-09-29T05:21:55;9.87;;;4.70;;
15287;SDS011;7745;48.708;9.026;2022-09-29T05:24:23;11.77;;;4.57;;
15287;SDS011;7745;48.708;9.026;2022-09-29T05:26:50;7.07;;;4.43;;
15287;SDS011;7745;48.708;9.026;2022-09-29T05:29:16;8.40;;;4.50;;
15287;SDS011;7745;48.708;9.026;2022-09-29T05:31:43;8.70;;;4.60;;
15287;SDS011;7745;48.708;9.026;2022-09-29T05:34:10;8.93;;;4.67;;
15287;SDS011;7745;48.708;9.026;2022-09-29T05:36:37;8.47;;;5.03;;
15287;SDS011;7745;48.708;9.026;2022-09-29T05:39:04;8.07;;;4.77;;
15287;SDS011;7745;48.708;9.026;2022-09-29T05:41:32;7.27;;;4.77;;
15287;SDS011;7745;48.708;9.026;2022-09-29T05:43:59;8.20;;;4.50;;
15287;SDS011;7745;48.708;9.026;2022-09-29T05:46:26;7.77;;;4.67;;
15287;SDS011;7745;48.708;9.026;2022-09-29T05:48:53;10.43;;;5.10;;
15287;SDS011;7745;48.708;9.026;2022-09-29T05:51:21;6.70;;;4.67;;
15287;SDS011;7745;48.708;9.026;2022-09-29T05:53:49;12.33;;;5.50;;
15287;SDS011;7745;48.708;9.026;2022-09-29T05:56:16;13.27;;;5.03;;
15287;SDS011;7745;48.708;9.026;2022-09-29T05:58:48;14.53;;;5.73;;
15287;SDS011;7745;48.708;9.026;2022-09-29T06:01:16;9.70;;;5.23;;
15287;SDS011;7745;48.708;9.026;2022-09-29T06:03:44;9.97;;;5.37;;
15287;SDS011;7745;48.708;9.026;2022-09-29T06:06:11;9.37;;;5.07;;
15287;SDS011;7745;48.708;9.026;2022-09-29T06:08:39;11.33;;;4.90;;
15287;SDS011;7745;48.708;9.026;2022-09-29T06:11:07;12.57;;;5.27;;
15287;SDS011;7745;48.708;9.026;2022-09-29T06:13:36;12.27;;;5.40;;
15287;SDS011;7745;48.708;9.026;2022-09-29T06:16:05;10.13;;;4.43;;
15287;SDS011;7745;48.708;9.026;2022-09-29T06:18:32;11.07;;;5.03;;
15287;SDS011;7745;48.708;9.026;2022-09-29T06:20:59;7.10;;;4.90;;
15287;SDS011;7745;48.708;9.026;2022-09-29T06:23:27;6.93;;;5.43;;
15287;SDS011;7745;48.708;9.026;2022-09-29T06:25:54;10.27;;;5.90;;
15287;SDS011;7745;48.708;9.026;2022-09-29T06:28:22;11.10;;;7.17;;
15287;SDS011;7745;48.708;9.026;2022-09-29T06:30:48;9.83;;;6.77;;
15287;SDS011;7745;48.708;9.026;2022-09-29T06:33:17;12.47;;;7.00;;
15287;SDS011;7745;48.708;9.026;2022-09-29T06:35:44;9.67;;;6.07;;
15287;SDS011;7745;48.708;9.026;2022-09-29T06:38:29;12.23;;;6.13;;
15287;SDS011;7745;48.708;9.026;2022-09-29T06:40:56;11.20;;;6.30;;
15287;SDS011;7745;48.708;9.026;2022-09-29T06:43:23;13.10;;;6.70;;
15287;SDS011;7745;48.708;9.026;2022-09-29T06:45:49;11.73;;;5.87;;
15287;SDS011;7745;48.708;9.026;2022-09-29T06:48:17;11.07;;;5.73;;
15287;SDS011;7745;48.708;9.026;2022-09-29T06:50:44;14.13;;;6.37;;
15287;SDS011;7745;48.708;9.026;2022-09-29T06:53:12;49.37;;;23.13;;
15287;SDS011;7745;48.708;9.026;2022-09-29T06:55:39;34.90;;;16.43;;
15287;SDS011;7745;48.708;9.026;2022-09-29T06:58:05;37.73;;;16.37;;
15287;SDS011;7745;48.708;9.026;2022-09-29T07:00:33;27.23;;;11.97;;
15287;SDS011;7745;48.708;9.026;2022-09-29T07:02:59;21.63;;;9.97;;
15287;SDS011;7745;48.708;9.026;2022-09-29T07:05:27;17.87;;;7.70;;
15287;SDS011;7745;48.708;9.026;2022-09-29T07:07:56;13.40;;;6.40;;
15287;SDS011;7745;48.708;9.026;2022-09-29T07:10:23;9.87;;;6.20;;
15287;SDS011;7745;48.708;9.026;2022-09-29T07:12:49;18.43;;;8.00;;
15287;SDS011;7745;48.708;9.026;2022-09-29T07:15:17;13.23;;;7.50;;
15287;SDS011;7745;48.708;9.026;2022-09-29T07:17:43;14.77;;;7.33;;
15287;SDS011;7745;48.708;9.026;2022-09-29T07:20:10;15.63;;;7.10;;
15287;SDS011;7745;48.708;9.026;2022-09-29T07:22:38;10.93;;;6.37;;
15287;SDS011;7745;48.708;9.026;2022-09-29T07:25:05;10.27;;;5.63;;
15287;SDS011;7745;48.708;9.026;2022-09-29T07:27:32;10.13;;;5.23;;
15287;SDS011;7745;48.708;9.026;2022-09-29T07:29:59;10.03;;;5.33;;
15287;SDS011;7745;48.708;9.026;2022-09-29T07:32:26;9.57;;;6.03;;
15287;SDS011;7745;48.708;9.026;2022-09-29T07:34:56;9.27;;;5.80;;
15287;SDS011;7745;48.708;9.026;2022-09-29T07:37:23;12.60;;;6.20;;
15287;SDS011;7745;48.708;9.026;2022-09-29T07:39:51;8.30;;;6.40;;
15287;SDS011;7745;48.708;9.026;2022-09-29T07:42:18;12.63;;;6.30;;
15287;SDS011;7745;48.708;9.026;2022-09-29T07:44:45;12.57;;;6.83;;
15287;SDS011;7745;48.708;9.026;2022-09-29T07:47:12;9.57;;;6.73;;
15287;SDS011;7745;48.708;9.026;2022-09-29T07:49:39;6.87;;;6.17;;
15287;SDS011;7745;48.708;9.026;2022-09-29T07:52:06;8.37;;;6.50;;
15287;SDS011;7745;48.708;9.026;2022-09-29T07:54:33;9.13;;;6.83;;
15287;SDS011;7745;48.708;9.026;2022-09-29T07:57:01;10.37;;;6.80;;
15287;SDS011;7745;48.708;9.026;2022-09-29T07:59:28;10.43;;;7.07;;
15287;SDS011;7745;48.708;9.026;2022-09-29T08:01:55;11.83;;;6.40;;
15287;SDS011;7745;48.708;9.026;2022-09-29T08:04:22;11.83;;;7.33;;
15287;SDS011;7745;48.708;9.026;2022-09-29T08:06:49;9.13;;;6.07;;
15287;SDS011;7745;48.708;9.026;2022-09-29T08:09:16;15.67;;;7.43;;
15287;SDS011;7745;48.708;9.026;2022-09-29T08:11:43;9.40;;;6.67;;
15287;SDS011;7745;48.708;9.026;2022-09-29T08:14:11;12.20;;;7.83;;
15287;SDS011;7745;48.708;9.026;2022-09-29T08:16:38;11.97;;;6.97;;
15287;SDS011;7745;48.708;9.026;2022-09-29T08:19:05;9.43;;;6.73;;
15287;SDS011;7745;48.708;9.026;2022-09-29T08:21:32;10.43;;;6.57;;
15287;SDS011;7745;48.708;9.026;2022-09-29T08:24:01;8.97;;;6.73;;
15287;SDS011;7745;48.708;9.026;2022-09-29T08:26:30;12.03;;;7.30;;
15287;SDS011;7745;48.708;9.026;2022-09-29T08:28:59;8.67;;;7.17;;
15287;SDS011;7745;48.708;9.026;2022-09-29T08:31:27;7.47;;;6.20;;
15287;SDS011;7745;48.708;9.026;2022-09-29T08:33:55;8.13;;;6.37;;
15287;SDS011;7745;48.708;9.026;2022-09-29T08:36:23;9.17;;;6.10;;
15287;SDS011;7745;48.708;9.026;2022-09-29T08:38:50;9.03;;;6.50;;
15287;SDS011;7745;48.708;9.026;2022-09-29T08:41:20;8.77;;;7.03;;
15287;SDS011;7745;48.708;9.026;2022-09-29T08:43:59;16.65;;;9.27;;
15287;SDS011;7745;48.708;9.026;2022-09-29T08:46:31;16.13;;;9.68;;
15287;SDS011;7745;48.708;9.026;2022-09-29T08:49:03;12.27;;;9.10;;
15287;SDS011;7745;48.708;9.026;2022-09-29T08:51:36;11.13;;;7.47;;
15287;SDS011;7745;48.708;9.026;2022-09-29T08:54:19;9.88;;;7.32;;
15287;SDS011;7745;48.708;9.026;2022-09-29T08:56:52;11.05;;;7.35;;
15287;SDS011;7745;48.708;9.026;2022-09-29T08:59:19;7.45;;;5.30;;
15287;SDS011;7745;48.708;9.026;2022-09-29T09:01:53;8.17;;;5.30;;
15287;SDS011;7745;48.708;9.026;2022-09-29T09:07:24;6.63;;;4.70;;
15287;SDS011;7745;48.708;9.026;2022-09-29T09:10:06;4.47;;;3.90;;
15287;SDS011;7745;48.708;9.026;2022-09-29T09:12:52;6.43;;;3.43;;
15287;SDS011;7745;48.708;9.026;2022-09-29T09:15:34;4.40;;;3.60;;
15287;SDS011;7745;48.708;9.026;2022-09-29T09:18:13;6.13;;;3.70;;
15287;SDS011;7745;48.708;9.026;2022-09-29T09:20:55;6.33;;;3.77;;
15287;SDS011;7745;48.708;9.026;2022-09-29T09:23:33;6.93;;;3.57;;
15287;SDS011;7745;48.708;9.026;2022-09-29T09:26:11;4.10;;;2.87;;
15287;SDS011;7745;48.708;9.026;2022-09-29T09:28:40;7.50;;;4.73;;
15287;SDS011;7745;48.708;9.026;2022-09-29T09:31:14;5.03;;;3.30;;
15287;SDS011;7745;48.708;9.026;2022-09-29T09:33:48;7.20;;;3.27;;
15287;SDS011;7745;48.708;9.026;2022-09-29T09:36:20;4.30;;;3.07;;
15287;SDS011;7745;48.708;9.026;2022-09-29T09:38:56;4.30;;;2.50;;
15287;SDS011;7745;48.708;9.026;2022-09-29T09:41:25;7.40;;;3.00;;
15287;SDS011;7745;48.708;9.026;2022-09-29T09:43:55;8.63;;;2.97;;
15287;SDS011;7745;48.708;9.026;2022-09-29T09:46:28;6.73;;;3.07;;
15287;SDS011;7745;48.708;9.026;2022-09-29T09:49:02;5.47;;;2.60;;
15287;SDS011;7745;48.708;9.026;2022-09-29T09:51:39;2.63;;;2.30;;
15287;SDS011;7745;48.708;9.026;2022-09-29T09:54:13;7.90;;;2.67;;
15287;SDS011;7745;48.708;9.026;2022-09-29T09:59:56;3.40;;;2.17;;
15287;SDS011;7745;48.708;9.026;2022-09-29T10:02:30;3.97;;;2.60;;
15287;SDS011;7745;48.708;9.026;2022-09-29T10:04:58;5.40;;;2.03;;
15287;SDS011;7745;48.708;9.026;2022-09-29T10:07:26;4.77;;;2.03;;
15287;SDS011;7745;48.708;9.026;2022-09-29T10:09:55;3.77;;;2.00;;
15287;SDS011;7745;48.708;9.026;2022-09-29T10:12:27;2.90;;;2.10;;
15287;SDS011;7745;48.708;9.026;2022-09-29T10:14:56;3.67;;;2.10;;
15287;SDS011;7745;48.708;9.026;2022-09-29T10:17:29;4.70;;;2.80;;
15287;SDS011;7745;48.708;9.026;2022-09-29T10:20:03;4.20;;;2.97;;
15287;SDS011;7745;48.708;9.026;2022-09-29T10:22:31;3.27;;;2.80;;
15287;SDS011;7745;48.708;9.026;2022-09-29T10:25:05;5.60;;;2.97;;
15287;SDS011;7745;48.708;9.026;2022-09-29T10:27:34;3.77;;;2.60;;
15287;SDS011;7745;48.708;9.026;2022-09-29T10:30:05;5.50;;;2.60;;
15287;SDS011;7745;48.708;9.026;2022-09-29T10:32:43;3.00;;;2.20;;
15287;SDS011;7745;48.708;9.026;2022-09-29T10:35:16;3.83;;;2.40;;
15287;SDS011;7745;48.708;9.026;2022-09-29T10:37:50;8.10;;;3.10;;
15287;SDS011;7745;48.708;9.026;2022-09-29T10:40:25;3.17;;;2.60;;
15287;SDS011;7745;48.708;9.026;2022-09-29T10:42:51;3.67;;;2.23;;
15287;SDS011;7745;48.708;9.026;2022-09-29T10:45:19;3.50;;;3.10;;
15287;SDS011;7745;48.708;9.026;2022-09-29T10:47:47;4.10;;;2.37;;
15287;SDS011;7745;48.708;9.026;2022-09-29T10:50:34;3.90;;;2.40;;
15287;SDS011;7745;48.708;9.026;2022-09-29T10:53:03;5.17;;;2.60;;
15287;SDS011;7745;48.708;9.026;2022-09-29T10:55:46;5.30;;;2.27;;
15287;SDS011;7745;48.708;9.026;2022-09-29T10:58:18;3.00;;;2.10;;
15287;SDS011;7745;48.708;9.026;2022-09-29T11:00:47;4.97;;;2.03;;
15287;SDS011;7745;48.708;9.026;2022-09-29T11:03:16;4.10;;;2.00;;
15287;SDS011;7745;48.708;9.026;2022-09-29T11:05:51;5.73;;;2.03;;
15287;SDS011;7745;48.708;9.026;2022-09-29T11:08:20;3.03;;;1.80;;
15287;SDS011;7745;48.708;9.026;2022-09-29T11:11:01;1.80;;;1.43;;
15287;SDS011;7745;48.708;9.026;2022-09-29T11:13:34;4.00;;;1.43;;
15287;SDS011;7745;48.708;9.026;2022-09-29T11:16:04;3.43;;;1.50;;
15287;SDS011;7745;48.708;9.026;2022-09-29T11:18:39;3.30;;;1.93;;
15287;SDS011;7745;48.708;9.026;2022-09-29T11:21:19;6.90;;;1.47;;
15287;SDS011;7745;48.708;9.026;2022-09-29T11:24:09;2.97;;;1.30;;
15287;SDS011;7745;48.708;9.026;2022-09-29T11:26:43;2.77;;;1.30;;
15287;SDS011;7745;48.708;9.026;2022-09-29T11:29:24;3.17;;;1.40;;
15287;SDS011;7745;48.708;9.026;2022-09-29T11:32:07;4.90;;;1.80;;
15287;SDS011;7745;48.708;9.026;2022-09-29T11:34:48;4.07;;;1.80;;
15287;SDS011;7745;48.708;9.026;2022-09-29T11:40:53;4.37;;;1.67;;
15287;SDS011;7745;48.708;9.026;2022-09-29T11:43:36;2.93;;;1.50;;
15287;SDS011;7745;48.708;9.026;2022-09-29T11:46:13;2.80;;;1.43;;
15287;SDS011;7745;48.708;9.026;2022-09-29T11:48:56;3.53;;;1.40;;
15287;SDS011;7745;48.708;9.026;2022-09-29T11:51:57;2.93;;;1.30;;
15287;SDS011;7745;48.708;9.026;2022-09-29T11:54:37;2.03;;;1.50;;
15287;SDS011;7745;48.708;9.026;2022-09-29T11:57:17;2.43;;;1.33;;
15287;SDS011;7745;48.708;9.026;2022-09-29T12:00:02;4.23;;;1.67;;
15287;SDS011;7745;48.708;9.026;2022-09-29T12:05:36;4.63;;;1.50;;
15287;SDS011;7745;48.708;9.026;2022-09-29T12:08:16;5.80;;;1.50;;
15287;SDS011;7745;48.708;9.026;2022-09-29T12:10:53;3.83;;;1.10;;
15287;SDS011;7745;48.708;9.026;2022-09-29T12:13:29;2.90;;;1.40;;
15287;SDS011;7745;48.708;9.026;2022-09-29T12:16:08;2.37;;;1.40;;
15287;SDS011;7745;48.708;9.026;2022-09-29T12:18:39;2.80;;;1.50;;
15287;SDS011;7745;48.708;9.026;2022-09-29T12:21:11;6.83;;;1.90;;
15287;SDS011;7745;48.708;9.026;2022-09-29T12:23:41;3.00;;;1.73;;
15287;SDS011;7745;48.708;9.026;2022-09-29T12:26:12;3.70;;;2.07;;
15287;SDS011;7745;48.708;9.026;2022-09-29T12:28:44;6.20;;;2.03;;
15287;SDS011;7745;48.708;9.026;2022-09-29T12:31:15;3.30;;;1.57;;
15287;SDS011;7745;48.708;9.026;2022-09-29T12:33:48;4.00;;;1.63;;
15287;SDS011;7745;48.708;9.026;2022-09-29T12:39:12;2.30;;;1.57;;
15287;SDS011;7745;48.708;9.026;2022-09-29T12:41:47;3.43;;;1.30;;
15287;SDS011;7745;48.708;9.026;2022-09-29T12:44:22;3.53;;;1.40;;
15287;SDS011;7745;48.708;9.026;2022-09-29T12:46:57;4.10;;;1.10;;
15287;SDS011;7745;48.708;9.026;2022-09-29T12:49:31;4.07;;;1.40;;
15287;SDS011;7745;48.708;9.026;2022-09-29T12:52:07;3.30;;;1.30;;
15287;SDS011;7745;48.708;9.026;2022-09-29T12:54:44;5.53;;;1.57;;
15287;SDS011;7745;48.708;9.026;2022-09-29T12:57:16;4.20;;;1.67;;
15287;SDS011;7745;48.708;9.026;2022-09-29T12:59:51;4.23;;;1.30;;
15287;SDS011;7745;48.708;9.026;2022-09-29T13:02:26;3.73;;;1.50;;
15287;SDS011;7745;48.708;9.026;2022-09-29T13:05:14;4.20;;;1.40;;
15287;SDS011;7745;48.708;9.026;2022-09-29T13:08:06;3.87;;;1.50;;
15287;SDS011;7745;48.708;9.026;2022-09-29T13:10:57;1.63;;;1.33;;
15287;SDS011;7745;48.708;9.026;2022-09-29T13:13:40;2.37;;;1.47;;
15287;SDS011;7745;48.708;9.026;2022-09-29T13:16:28;2.43;;;1.23;;
15287;SDS011;7745;48.708;9.026;2022-09-29T13:19:15;3.20;;;1.40;;
15287;SDS011;7745;48.708;9.026;2022-09-29T13:21:54;3.73;;;1.57;;
15287;SDS011;7745;48.708;9.026;2022-09-29T13:24:37;2.23;;;1.37;;
15287;SDS011;7745;48.708;9.026;2022-09-29T13:27:20;2.63;;;1.50;;
15287;SDS011;7745;48.708;9.026;2022-09-29T13:29:54;2.87;;;1.60;;
15287;SDS011;7745;48.708;9.026;2022-09-29T13:32:27;3.23;;;1.37;;
15287;SDS011;7745;48.708;9.026;2022-09-29T13:34:56;2.50;;;1.23;;
15287;SDS011;7745;48.708;9.026;2022-09-29T13:37:26;4.43;;;1.40;;
15287;SDS011;7745;48.708;9.026;2022-09-29T13:39:57;2.97;;;1.40;;
15287;SDS011;7745;48.708;9.026;2022-09-29T13:42:37;3.20;;;1.20;;
15287;SDS011;7745;48.708;9.026;2022-09-29T13:45:17;1.93;;;1.10;;
15287;SDS011;7745;48.708;9.026;2022-09-29T13:51:23;2.37;;;1.30;;
15287;SDS011;7745;48.708;9.026;2022-09-29T13:54:31;3.47;;;1.20;;
15287;SDS011;7745;48.708;9.026;2022-09-29T14:03:01;2.70;;;1.27;;
15287;SDS011;7745;48.708;9.026;2022-09-29T14:05:52;3.77;;;1.30;;
15287;SDS011;7745;48.708;9.026;2022-09-29T14:08:26;3.10;;;1.20;;
15287;SDS011;7745;48.708;9.026;2022-09-29T14:11:06;4.27;;;1.17;;
15287;SDS011;7745;48.708;9.026;2022-09-29T14:13:44;3.97;;;1.23;;
15287;SDS011;7745;48.708;9.026;2022-09-29T14:16:25;2.17;;;1.17;;
15287;SDS011;7745;48.708;9.026;2022-09-29T14:19:04;4.27;;;1.43;;
15287;SDS011;7745;48.708;9.026;2022-09-29T14:21:47;2.30;;;1.10;;
15287;SDS011;7745;48.708;9.026;2022-09-29T14:30:03;4.87;;;1.23;;
15287;SDS011;7745;48.708;9.026;2022-09-29T14:32:41;2.20;;;0.90;;
15287;SDS011;7745;48.708;9.026;2022-09-29T14:35:15;1.77;;;1.00;;
15287;SDS011;7745;48.708;9.026;2022-09-29T14:37:45;4.73;;;1.07;;
15287;SDS011;7745;48.708;9.026;2022-09-29T14:40:19;3.43;;;1.03;;
15287;SDS011;7745;48.708;9.026;2022-09-29T14:43:04;2.40;;;1.20;;
15287;SDS011;7745;48.708;9.026;2022-09-29T14:45:37;1.80;;;1.00;;
15287;SDS011;7745;48.708;9.026;2022-09-29T14:48:32;2.60;;;0.97;;
15287;SDS011;7745;48.708;9.026;2022-09-29T14:51:21;5.33;;;1.60;;
15287;SDS011;7745;48.708;9.026;2022-09-29T14:54:14;1.97;;;1.10;;
15287;SDS011;7745;48.708;9.026;2022-09-29T14:56:52;2.23;;;1.30;;
15287;SDS011;7745;48.708;9.026;2022-09-29T14:59:33;5.07;;;1.10;;
15287;SDS011;7745;48.708;9.026;2022-09-29T15:02:18;2.27;;;1.20;;
15287;SDS011;7745;48.708;9.026;2022-09-29T15:04:47;3.70;;;1.20;;
15287;SDS011;7745;48.708;9.026;2022-09-29T15:07:15;3.20;;;1.73;;
15287;SDS011;7745;48.708;9.026;2022-09-29T15:09:45;2.47;;;1.50;;
15287;SDS011;7745;48.708;9.026;2022-09-29T15:12:19;6.00;;;1.83;;
15287;SDS011;7745;48.708;9.026;2022-09-29T15:14:47;5.40;;;1.90;;
15287;SDS011;7745;48.708;9.026;2022-09-29T15:17:16;4.63;;;1.90;;
15287;SDS011;7745;48.708;9.026;2022-09-29T15:19:55;4.87;;;1.63;;
15287;SDS011;7745;48.708;9.026;2022-09-29T15:22:34;5.17;;;1.67;;
15287;SDS011;7745;48.708;9.026;2022-09-29T15:25:20;3.83;;;1.60;;
15287;SDS011;7745;48.708;9.026;2022-09-29T15:27:55;3.63;;;1.83;;
15287;SDS011;7745;48.708;9.026;2022-09-29T15:30:25;1.40;;;1.30;;
15287;SDS011;7745;48.708;9.026;2022-09-29T15:32:54;3.33;;;1.40;;
15287;SDS011;7745;48.708;9.026;2022-09-29T15:35:35;2.60;;;1.30;;
15287;SDS011;7745;48.708;9.026;2022-09-29T15:38:25;3.80;;;1.43;;
15287;SDS011;7745;48.708;9.026;2022-09-29T15:40:57;5.30;;;1.50;;
15287;SDS011;7745;48.708;9.026;2022-09-29T15:43:29;3.80;;;1.70;;
15287;SDS011;7745;48.708;9.026;2022-09-29T15:46:12;3.97;;;1.57;;
15287;SDS011;7745;48.708;9.026;2022-09-29T15:48:42;5.33;;;1.80;;
15287;SDS011;7745;48.708;9.026;2022-09-29T15:51:27;3.47;;;1.40;;
15287;SDS011;7745;48.708;9.026;2022-09-29T15:53:54;7.03;;;1.83;;
15287;SDS011;7745;48.708;9.026;2022-09-29T15:56:21;5.30;;;1.90;;
15287;SDS011;7745;48.708;9.026;2022-09-29T15:58:49;3.40;;;1.50;;
15287;SDS011;7745;48.708;9.026;2022-09-29T16:01:18;4.43;;;2.10;;
15287;SDS011;7745;48.708;9.026;2022-09-29T16:03:47;6.77;;;2.37;;